createdAt,value
2023-04-14T00:02:45.128Z,90.18
2023-04-14T00:05:33.442Z,91.12
2023-04-14T00:08:19.839Z,92.31
2023-04-14T00:11:06.531Z,91.16
2023-04-14T00:13:52.665Z,91.64
2023-04-14T00:16:39.543Z,91.38
2023-04-14T00:19:26.043Z,91.27
2023-04-14T00:22:13.660Z,91.00
2023-04-14T00:25:01.193Z,90.20
2023-04-14T00:27:47.614Z,89.96
2023-04-14T00:30:34.671Z,89.74
2023-04-14T00:33:21.971Z,90.09
2023-04-14T00:36:08.694Z,89.64
2023-04-14T00:38:56.174Z,90.81
2023-04-14T00:41:43.279Z,90.55
2023-04-14T00:44:29.971Z,90.89
2023-04-14T00:47:17.267Z,90.11
2023-04-14T00:50:04.265Z,89.95
2023-04-14T00:52:52.635Z,91.50
2023-04-14T00:55:41.537Z,90.11
2023-04-14T00:58:28.426Z,90.51
2023-04-14T01:01:16.671Z,89.52
2023-04-14T01:04:04.403Z,89.28
2023-04-14T01:06:50.996Z,89.45
2023-04-14T01:09:37.752Z,90.26
2023-04-14T01:12:35.551Z,90.42
2023-04-14T01:15:29.956Z,91.31
2023-04-14T01:18:26.141Z,91.44
2023-04-14T01:21:18.203Z,90.03
2023-04-14T01:24:22.565Z,90.47
2023-04-14T01:27:33.503Z,89.10
2023-04-14T01:30:36.246Z,89.03
2023-04-14T01:33:26.334Z,88.04
2023-04-14T01:36:18.434Z,89.72
2023-04-14T01:39:09.251Z,88.97
2023-04-14T01:41:58.891Z,91.53
2023-04-14T01:44:49.489Z,89.54
2023-04-14T01:47:37.256Z,88.77
2023-04-14T01:50:28.052Z,88.62
2023-04-14T01:53:18.929Z,91.66
2023-04-14T01:56:08.346Z,92.43
2023-04-14T01:58:57.338Z,95.31
2023-04-14T02:01:45.078Z,96.00
2023-04-14T02:04:33.172Z,96.44
2023-04-14T02:07:22.756Z,96.00
2023-04-14T02:10:11.080Z,95.83
2023-04-14T02:13:04.675Z,95.82
2023-04-14T02:15:52.174Z,95.70
2023-04-14T02:18:41.366Z,94.19
2023-04-14T02:21:29.759Z,93.22
2023-04-14T02:24:18.291Z,92.20
2023-04-14T02:27:09.813Z,93.29
2023-04-14T02:29:57.763Z,93.10
2023-04-14T02:32:47.636Z,92.63
2023-04-14T02:35:39.819Z,93.06
2023-04-14T02:38:34.357Z,94.04
2023-04-14T02:41:25.840Z,94.22
2023-04-14T02:44:18.775Z,93.95
2023-04-14T02:47:07.686Z,93.21
2023-04-14T02:50:00.421Z,93.24
2023-04-14T02:52:51.411Z,93.42
2023-04-14T02:55:39.833Z,92.47
2023-04-14T02:58:29.127Z,93.38
2023-04-14T03:01:17.145Z,93.22
2023-04-14T03:04:04.052Z,92.93
2023-04-14T03:06:55.855Z,93.76
2023-04-14T03:09:43.019Z,94.26
2023-04-14T03:12:31.019Z,94.74
2023-04-14T03:15:19.622Z,94.14
2023-04-14T03:18:07.310Z,93.27
2023-04-14T03:20:55.807Z,93.14
2023-04-14T03:23:43.547Z,93.40
2023-04-14T03:26:33.317Z,92.93
2023-04-14T03:29:22.302Z,93.71
2023-04-14T03:32:12.056Z,92.96
2023-04-14T03:35:01.362Z,93.35
2023-04-14T03:37:50.628Z,90.41
2023-04-14T03:40:41.225Z,89.88
2023-04-14T03:43:29.526Z,92.20
2023-04-14T03:46:21.852Z,93.76
2023-04-14T03:49:11.554Z,94.93
2023-04-14T03:52:02.637Z,95.98
2023-04-14T03:54:51.967Z,95.59
2023-04-14T03:57:41.128Z,96.41
2023-04-14T04:00:30.587Z,95.43
2023-04-14T04:03:19.519Z,95.58
2023-04-14T04:06:08.732Z,95.04
2023-04-14T04:08:58.515Z,93.23
2023-04-14T04:11:48.696Z,93.84
2023-04-14T04:14:39.297Z,92.95
2023-04-14T04:17:28.570Z,93.52
2023-04-14T04:20:16.311Z,94.99
2023-04-14T04:23:08.306Z,94.11
2023-04-14T04:25:56.811Z,93.50
2023-04-14T04:28:51.091Z,93.12
2023-04-14T04:31:37.760Z,93.63
2023-04-14T04:34:26.608Z,91.87
2023-04-14T04:37:14.798Z,92.66
2023-04-14T04:40:02.305Z,92.68
2023-04-14T04:42:48.936Z,92.87
2023-04-14T04:46:09.865Z,92.21
2023-04-14T04:48:58.215Z,92.97
2023-04-14T04:51:45.570Z,92.39
2023-04-14T04:54:32.387Z,91.12
2023-04-14T04:57:20.123Z,91.75
2023-04-14T05:00:08.922Z,92.99
2023-04-14T05:02:55.697Z,93.01
2023-04-14T05:05:42.226Z,93.40
2023-04-14T05:08:28.406Z,94.10
2023-04-14T05:11:14.678Z,93.20
2023-04-14T05:14:02.637Z,93.61
2023-04-14T05:16:48.864Z,93.73
2023-04-14T05:19:35.557Z,90.70
2023-04-14T05:22:22.134Z,90.18
2023-04-14T05:25:09.112Z,90.67
2023-04-14T05:27:55.627Z,90.61
2023-04-14T05:30:43.456Z,88.67
2023-04-14T05:33:29.814Z,89.15
2023-04-14T05:36:16.269Z,89.81
2023-04-14T05:39:02.968Z,90.03
2023-04-14T05:41:49.189Z,89.74
2023-04-14T05:44:35.638Z,89.49
2023-04-14T05:47:23.600Z,90.23
2023-04-14T05:50:10.614Z,87.82
2023-04-14T05:52:57.257Z,87.93
2023-04-14T05:55:43.767Z,86.51
2023-04-14T05:58:30.111Z,87.22
2023-04-14T06:01:16.548Z,87.57
2023-04-14T06:04:04.982Z,88.06
2023-04-14T06:06:51.937Z,84.68
2023-04-14T06:09:38.091Z,83.43
2023-04-14T06:12:24.366Z,83.08
2023-04-14T06:15:11.218Z,82.19
2023-04-14T06:17:57.491Z,80.93
2023-04-14T06:20:46.318Z,81.82
2023-04-14T06:23:32.754Z,79.75
2023-04-14T06:26:18.971Z,81.23
2023-04-14T06:29:07.382Z,79.62
2023-04-14T06:31:54.847Z,79.08
2023-04-14T06:34:41.217Z,78.57
2023-04-14T06:37:28.745Z,77.69
2023-04-14T06:40:15.275Z,76.06
2023-04-14T06:43:01.701Z,75.83
2023-04-14T06:45:48.221Z,76.35
2023-04-14T06:48:34.773Z,76.11
2023-04-14T06:51:21.327Z,76.41
2023-04-14T06:54:09.007Z,75.32
2023-04-14T06:56:55.875Z,75.48
2023-04-14T06:59:42.479Z,73.77
2023-04-14T07:02:47.431Z,73.53
2023-04-14T07:05:52.990Z,72.13
2023-04-14T07:08:40.599Z,71.66
2023-04-14T07:11:29.763Z,73.81
2023-04-14T07:14:16.304Z,70.84
2023-04-14T07:17:02.853Z,70.23
2023-04-14T07:19:49.351Z,70.23
2023-04-14T07:22:35.763Z,68.46
2023-04-14T07:25:22.991Z,64.02
2023-04-14T07:28:11.516Z,65.43
2023-04-14T07:30:58.238Z,62.99
2023-04-14T07:33:44.768Z,61.43
2023-04-14T07:36:32.099Z,59.56
2023-04-14T07:39:22.607Z,58.25
2023-04-14T07:42:09.303Z,58.83
2023-04-14T07:44:56.979Z,56.89
2023-04-14T07:47:43.323Z,57.70
2023-04-14T07:50:30.164Z,58.49
2023-04-14T07:53:16.622Z,56.59
2023-04-14T07:56:03.304Z,54.73
2023-04-14T07:58:49.844Z,54.47
2023-04-14T08:01:37.620Z,52.41
2023-04-14T08:04:24.046Z,52.17
2023-04-14T08:07:10.825Z,52.92
2023-04-14T08:09:57.166Z,51.42
2023-04-14T08:12:43.699Z,50.02
2023-04-14T08:15:30.262Z,51.31
2023-04-14T08:18:17.772Z,51.93
2023-04-14T08:21:04.076Z,53.01
2023-04-14T08:23:50.793Z,52.54
2023-04-14T08:26:37.013Z,50.27
2023-04-14T08:29:23.737Z,50.22
2023-04-14T08:32:10.038Z,50.68
2023-04-14T08:35:37.435Z,51.03
2023-04-14T08:38:04.275Z,51.50
2023-04-14T08:40:55.829Z,50.56
2023-04-14T08:43:42.888Z,49.53
2023-04-14T08:46:30.113Z,47.31
2023-04-14T08:49:25.910Z,48.20
2023-04-14T08:52:14.268Z,49.12
2023-04-14T08:55:02.400Z,49.07
2023-04-14T08:57:50.103Z,47.10
2023-04-14T09:00:36.458Z,48.41
2023-04-14T09:03:24.070Z,49.23
2023-04-14T09:06:11.958Z,46.37
2023-04-14T09:09:03.715Z,47.68
2023-04-14T09:11:51.390Z,48.24
2023-04-14T09:14:38.331Z,46.87
2023-04-14T09:17:26.233Z,48.89
2023-04-14T09:20:38.077Z,45.91
2023-04-14T09:23:22.612Z,46.46
2023-04-14T09:26:11.446Z,46.69
2023-04-14T09:28:58.629Z,46.43
2023-04-14T09:31:45.880Z,46.50
2023-04-14T09:34:32.586Z,45.84
2023-04-14T09:37:19.787Z,45.82
2023-04-14T09:40:08.140Z,45.98
2023-04-14T09:42:57.338Z,44.67
2023-04-14T09:45:44.649Z,46.49
2023-04-14T09:48:31.519Z,45.85
2023-04-14T09:51:18.266Z,44.61
2023-04-14T09:54:06.180Z,45.92
2023-04-14T09:56:53.137Z,45.64
2023-04-14T09:59:41.624Z,47.77
2023-04-14T10:02:28.130Z,48.64
2023-04-14T10:05:15.007Z,47.24
2023-04-14T10:08:03.469Z,47.97
2023-04-14T10:10:49.680Z,48.66
2023-04-14T10:13:36.287Z,46.46
2023-04-14T10:16:25.151Z,47.63
2023-04-14T10:19:11.389Z,46.03
2023-04-14T10:21:58.549Z,47.86
2023-04-14T10:24:45.377Z,50.07
2023-04-14T10:27:33.750Z,48.46
2023-04-14T10:30:20.047Z,48.46
2023-04-14T10:33:07.887Z,47.29
2023-04-14T10:36:00.602Z,47.19
2023-04-14T10:38:47.437Z,47.12
2023-04-14T10:41:45.728Z,46.72
2023-04-14T10:44:34.913Z,45.16
2023-04-14T10:47:24.713Z,44.83
2023-04-14T10:50:14.218Z,46.77
2023-04-14T10:53:09.252Z,46.34
2023-04-14T10:55:56.946Z,46.49
2023-04-14T10:58:55.334Z,46.99
2023-04-14T11:01:41.809Z,47.37
2023-04-14T11:04:28.675Z,46.01
2023-04-14T11:07:21.976Z,42.94
2023-04-14T11:10:35.702Z,43.49
2023-04-14T11:13:22.199Z,44.14
2023-04-14T11:16:09.017Z,43.39
2023-04-14T11:18:55.581Z,43.80
2023-04-14T11:21:50.709Z,42.66
2023-04-14T11:24:39.178Z,44.97
2023-04-14T11:27:25.761Z,42.94
2023-04-14T11:30:16.022Z,42.91
2023-04-14T11:33:02.540Z,40.16
2023-04-14T11:35:49.139Z,37.75
2023-04-14T11:38:40.213Z,39.10
2023-04-14T11:41:28.416Z,38.58
2023-04-14T11:44:17.825Z,37.38
2023-04-14T11:47:05.147Z,37.14
2023-04-14T11:49:51.916Z,38.31
2023-04-14T11:52:38.838Z,38.20
2023-04-14T11:55:25.074Z,37.90
2023-04-14T11:58:13.722Z,37.08
2023-04-14T12:01:00.672Z,35.27
2023-04-14T12:03:47.221Z,34.74
2023-04-14T12:06:38.612Z,35.77
2023-04-14T12:09:30.059Z,37.59
2023-04-14T12:12:18.652Z,35.05
2023-04-14T12:15:09.854Z,33.86
2023-04-14T12:17:57.101Z,38.22
2023-04-14T12:20:45.967Z,38.38
2023-04-14T12:23:35.736Z,40.28
2023-04-14T12:26:22.194Z,37.33
2023-04-14T12:29:09.904Z,37.54
2023-04-14T12:31:57.913Z,36.73
2023-04-14T12:34:54.810Z,37.00
2023-04-14T12:37:49.852Z,35.34
2023-04-14T12:40:40.534Z,36.89
2023-04-14T12:43:31.773Z,37.84
2023-04-14T12:46:25.601Z,38.14
2023-04-14T12:49:30.451Z,35.76
2023-04-14T12:52:35.671Z,37.08
2023-04-14T12:55:23.788Z,36.68
2023-04-14T12:58:10.300Z,35.44
2023-04-14T13:00:56.992Z,35.72
2023-04-14T13:03:45.974Z,34.83
2023-04-14T13:06:33.967Z,36.86
2023-04-14T13:09:20.477Z,35.26
2023-04-14T13:12:07.116Z,34.75
2023-04-14T13:14:53.781Z,36.12
2023-04-14T13:17:40.437Z,36.32
2023-04-14T13:20:26.656Z,35.09
2023-04-14T13:23:14.352Z,36.32
2023-04-14T13:26:01.478Z,34.96
2023-04-14T13:28:50.271Z,35.13
2023-04-14T13:31:37.827Z,35.10
2023-04-14T13:34:24.114Z,35.61
2023-04-14T13:37:10.568Z,34.94
2023-04-14T13:39:59.230Z,34.18
2023-04-14T13:42:46.944Z,33.75
2023-04-14T13:45:34.495Z,36.32
2023-04-14T13:48:27.415Z,37.72
2023-04-14T13:51:14.623Z,33.67
2023-04-14T13:54:01.461Z,33.61
2023-04-14T13:56:48.982Z,32.64
2023-04-14T13:59:35.230Z,38.14
2023-04-14T14:02:23.707Z,33.30
2023-04-14T14:05:12.115Z,34.64
2023-04-14T14:07:58.702Z,36.33
2023-04-14T14:10:45.276Z,33.95
2023-04-14T14:13:33.954Z,35.15
2023-04-14T14:16:36.063Z,32.68
2023-04-14T14:19:23.871Z,33.12
2023-04-14T14:22:10.336Z,35.14
2023-04-14T14:25:10.621Z,34.31
2023-04-14T14:28:03.804Z,35.51
2023-04-14T14:30:51.980Z,35.99
2023-04-14T14:33:38.991Z,36.38
2023-04-14T14:36:26.636Z,35.22
2023-04-14T14:39:13.044Z,33.92
2023-04-14T14:42:00.076Z,33.08
2023-04-14T14:44:46.566Z,32.55
2023-04-14T14:47:34.539Z,32.65
2023-04-14T14:50:21.467Z,33.96
2023-04-14T14:53:08.029Z,35.36
2023-04-14T14:55:54.318Z,36.29
2023-04-14T14:58:41.249Z,33.52
2023-04-14T15:01:27.643Z,34.89
2023-04-14T15:04:15.445Z,37.40
2023-04-14T15:07:02.092Z,38.73
2023-04-14T15:09:49.824Z,37.53
2023-04-14T15:12:36.219Z,39.34
2023-04-14T15:15:22.634Z,38.21
2023-04-14T15:18:10.149Z,38.21
2023-04-14T15:20:57.785Z,39.00
2023-04-14T15:23:45.568Z,38.31
2023-04-14T15:26:32.121Z,36.48
2023-04-14T15:29:19.340Z,37.61
2023-04-14T15:32:05.806Z,37.47
2023-04-14T15:34:52.301Z,35.51
2023-04-14T15:37:40.221Z,37.69
2023-04-14T15:40:26.409Z,38.63
2023-04-14T15:43:13.054Z,38.86
2023-04-14T15:45:59.679Z,38.61
2023-04-14T15:48:46.240Z,39.61
2023-04-14T15:51:32.790Z,41.05
2023-04-14T15:54:21.063Z,39.50
2023-04-14T15:57:07.690Z,39.75
2023-04-14T15:59:54.122Z,39.53
2023-04-14T16:02:41.914Z,40.17
2023-04-14T16:05:28.815Z,40.01
2023-04-14T16:08:15.745Z,38.98
2023-04-14T16:11:03.679Z,41.70
2023-04-14T16:13:50.036Z,38.65
2023-04-14T16:16:36.840Z,43.89
2023-04-14T16:19:23.410Z,44.20
2023-04-14T16:22:11.266Z,39.79
2023-04-14T16:24:57.640Z,39.77
2023-04-14T16:27:45.699Z,41.47
2023-04-14T16:30:32.668Z,40.45
2023-04-14T16:33:19.384Z,40.68
2023-04-14T16:36:07.241Z,42.48
2023-04-14T16:38:53.886Z,39.45
2023-04-14T16:41:40.489Z,40.48
2023-04-14T16:44:28.160Z,41.10
2023-04-14T16:47:14.779Z,43.31
2023-04-14T16:50:01.418Z,43.91
2023-04-14T16:52:47.614Z,43.92
2023-04-14T16:55:34.669Z,43.35
2023-04-14T16:58:21.543Z,45.73
2023-04-14T17:01:09.667Z,45.50
2023-04-14T17:03:56.664Z,48.28
2023-04-14T17:06:43.506Z,51.15
2023-04-14T17:09:30.113Z,53.06
2023-04-14T17:12:17.674Z,56.04
2023-04-14T17:15:07.162Z,56.86
2023-04-14T17:17:55.070Z,58.35
2023-04-14T17:20:42.750Z,58.41
2023-04-14T17:23:29.732Z,58.66
2023-04-14T17:26:16.891Z,60.56
2023-04-14T17:29:03.526Z,60.34
2023-04-14T17:31:50.564Z,60.26
2023-04-14T17:34:38.201Z,60.45
2023-04-14T17:37:25.347Z,60.24
2023-04-14T17:40:12.491Z,60.96
2023-04-14T17:42:59.000Z,61.95
2023-04-14T17:45:50.164Z,62.08
2023-04-14T17:48:37.036Z,61.46
2023-04-14T17:51:24.924Z,61.92
2023-04-14T17:54:11.741Z,62.93
2023-04-14T17:56:58.588Z,62.47
2023-04-14T17:59:45.839Z,63.02
2023-04-14T18:02:33.072Z,62.22
2023-04-14T18:05:19.731Z,62.19
2023-04-14T18:08:07.748Z,62.36
2023-04-14T18:10:54.162Z,62.82
2023-04-14T18:13:40.600Z,62.98
2023-04-14T18:16:27.392Z,62.91
2023-04-14T18:19:13.922Z,63.52
2023-04-14T18:22:00.253Z,63.51
2023-04-14T18:24:48.678Z,62.80
2023-04-14T18:30:25.371Z,64.40
2023-04-14T18:33:11.782Z,63.91
2023-04-14T18:36:00.496Z,64.60
2023-04-14T18:38:47.476Z,64.36
2023-04-14T18:41:35.260Z,65.01
2023-04-14T18:44:21.836Z,65.26
2023-04-14T18:47:09.240Z,65.49
2023-04-14T18:49:55.796Z,65.49
2023-04-14T18:52:43.006Z,66.32
2023-04-14T18:55:44.556Z,66.99
2023-04-14T18:58:33.471Z,66.60
2023-04-14T19:01:20.043Z,67.28
2023-04-14T19:04:07.582Z,67.35
2023-04-14T19:06:54.187Z,68.32
2023-04-14T19:09:40.609Z,68.25
2023-04-14T19:12:28.895Z,68.96
2023-04-14T19:15:16.986Z,66.32
2023-04-14T19:18:04.948Z,65.52
2023-04-14T19:20:51.642Z,65.23
2023-04-14T19:23:38.509Z,64.03
2023-04-14T19:26:25.158Z,64.03
2023-04-14T19:29:12.299Z,64.48
2023-04-14T19:32:00.104Z,64.16
2023-04-14T19:34:46.666Z,64.99
2023-04-14T19:37:33.837Z,66.12
2023-04-14T19:40:20.388Z,66.78
2023-04-14T19:43:07.047Z,65.13
2023-04-14T19:45:54.410Z,64.85
2023-04-14T19:48:42.358Z,64.47
2023-04-14T19:51:28.914Z,63.98
2023-04-14T19:54:15.091Z,66.15
2023-04-14T19:57:01.806Z,65.73
2023-04-14T19:59:48.114Z,65.34
2023-04-14T20:02:35.008Z,67.21
2023-04-14T20:05:23.271Z,68.14
2023-04-14T20:08:10.107Z,68.57
2023-04-14T20:10:56.839Z,69.45
2023-04-14T20:13:45.236Z,69.91
2023-04-14T20:16:32.648Z,70.45
2023-04-14T20:19:19.403Z,72.41
2023-04-14T20:22:07.510Z,72.15
2023-04-14T20:24:53.940Z,72.44
2023-04-14T20:27:40.949Z,72.00
2023-04-14T20:30:29.340Z,72.23
2023-04-14T20:33:16.582Z,73.09
2023-04-14T20:36:03.542Z,72.95
2023-04-14T20:38:51.692Z,72.96
2023-04-14T20:41:38.128Z,72.97
2023-04-14T20:44:24.999Z,73.26
2023-04-14T20:47:11.402Z,74.35
2023-04-14T20:49:58.014Z,73.90
2023-04-14T20:52:44.749Z,74.89
2023-04-14T20:55:32.750Z,74.55
2023-04-14T20:58:19.423Z,74.46
2023-04-14T21:01:06.181Z,75.00
2023-04-14T21:03:52.834Z,75.43
2023-04-14T21:06:39.497Z,75.96
2023-04-14T21:09:25.907Z,75.22
2023-04-14T21:12:16.114Z,76.20
2023-04-14T21:15:47.512Z,77.05
2023-04-14T21:18:11.814Z,77.59
2023-04-14T21:20:58.375Z,76.99
2023-04-14T21:23:44.751Z,75.77
2023-04-14T21:26:31.084Z,76.16
2023-04-14T21:29:19.468Z,78.67
2023-04-14T21:32:06.721Z,78.77
2023-04-14T21:34:53.236Z,77.38
2023-04-14T21:37:39.642Z,76.98
2023-04-14T21:40:26.357Z,77.73
2023-04-14T21:43:12.565Z,79.48
2023-04-14T21:46:00.563Z,80.03
2023-04-14T21:48:46.917Z,80.63
2023-04-14T21:51:33.378Z,80.84
2023-04-14T21:54:20.154Z,82.26
2023-04-14T21:57:06.413Z,80.60
2023-04-14T21:59:53.038Z,80.58
2023-04-14T22:02:41.023Z,80.66
2023-04-14T22:05:27.718Z,80.42
2023-04-14T22:08:14.109Z,81.70
2023-04-14T22:10:43.275Z,82.70
2023-04-14T22:13:11.711Z,81.92
2023-04-14T22:15:40.045Z,82.58
2023-04-14T22:18:09.721Z,83.63
2023-04-14T22:20:37.486Z,84.18
2023-04-14T22:23:05.612Z,84.33
2023-04-14T22:25:33.649Z,85.35
2023-04-14T22:28:01.723Z,85.28
2023-04-14T22:30:29.871Z,85.75
2023-04-14T22:32:57.837Z,86.35
2023-04-14T22:35:26.949Z,86.42
2023-04-14T22:37:54.714Z,86.72
2023-04-14T22:40:22.751Z,86.96
2023-04-14T22:42:50.630Z,87.55
2023-04-14T22:45:18.380Z,86.92
2023-04-14T22:47:46.273Z,86.96
2023-04-14T22:50:14.437Z,87.50
2023-04-14T22:52:43.494Z,88.32
2023-04-14T22:55:11.736Z,87.37
2023-04-14T22:57:39.497Z,84.45
2023-04-14T23:00:11.482Z,83.87
2023-04-14T23:02:42.039Z,83.71
2023-04-14T23:05:11.519Z,81.90
2023-04-14T23:07:39.865Z,82.71
2023-04-14T23:10:10.551Z,82.87
2023-04-14T23:12:38.667Z,83.95
2023-04-14T23:15:08.001Z,85.54
2023-04-14T23:17:36.126Z,84.61
2023-04-14T23:20:04.525Z,86.50
2023-04-14T23:22:32.924Z,84.85
2023-04-14T23:25:00.977Z,85.98
2023-04-14T23:27:30.604Z,86.57
2023-04-14T23:29:58.437Z,85.61
2023-04-14T23:32:26.583Z,85.39
2023-04-14T23:34:54.408Z,86.90
2023-04-14T23:37:22.422Z,86.70
2023-04-14T23:39:50.129Z,86.78
2023-04-14T23:42:17.833Z,86.43
2023-04-14T23:44:46.839Z,85.50
2023-04-14T23:47:14.633Z,85.85
2023-04-14T23:49:42.459Z,85.30
2023-04-14T23:52:10.195Z,85.38
2023-04-14T23:54:38.340Z,84.73
2023-04-14T23:57:06.247Z,86.13
2023-04-14T23:59:34.055Z,85.96
